Time;durP1;ratioP1;P1;durP2;ratioP2;P2;SDS_P1;SDS_P2;PMS_P1;PMS_P2;Temp;Humidity;BMP_temperature;BMP_pressure;BME280_temperature;BME280_humidity;BME280_pressure;Samples;Min_cycle;Max_cycle;Signal;HPM_P1;HPM_P2
2022/12/14 00:01:40;;;;;;;17.37;11.93;;;;;;;-5.13;53.82;98718.22;10355886;28;20267;-67
2022/12/14 00:06:41;;;;;;;17.57;10.73;;;;;;;-4.28;53.11;98635.44;10356804;28;20238;-66
2022/12/14 00:11:43;;;;;;;14.77;10.67;;;;;;;-4.53;53.49;98638.13;10360331;28;20947;-66
2022/12/14 00:16:45;;;;;;;19.23;11.73;;;;;;;-4.43;53.13;98638.28;10365851;28;20258;-65
2022/12/14 00:21:46;;;;;;;14.93;10.30;;;;;;;-4.71;53.90;98645.56;10364301;28;20240;-67
2022/12/14 00:26:49;;;;;;;16.13;10.40;;;;;;;-4.59;53.00;98650.81;10362868;28;20723;-67
2022/12/14 00:31:51;;;;;;;15.93;11.23;;;;;;;-4.31;52.96;98615.63;10361391;28;20332;-67
2022/12/14 00:36:54;;;;;;;15.60;11.93;;;;;;;-3.90;52.54;98576.78;10361514;28;20263;-69
2022/12/14 00:41:56;;;;;;;16.27;10.20;;;;;;;-5.05;53.52;98660.28;10362743;28;20353;-68
2022/12/14 00:46:57;;;;;;;14.83;11.13;;;;;;;-4.43;52.73;98624.38;10362682;28;20244;-67
2022/12/14 00:51:59;;;;;;;14.87;11.43;;;;;;;-4.79;52.78;98657.53;10362264;28;20286;-67
2022/12/14 00:57:01;;;;;;;16.87;11.10;;;;;;;-4.66;53.51;98634.78;10361957;28;20240;-65
2022/12/14 01:02:03;;;;;;;14.30;10.77;;;;;;;-3.77;52.09;98595.78;10362357;28;20248;-66
2022/12/14 01:07:04;;;;;;;16.73;10.53;;;;;;;-4.16;52.67;98624.06;10361600;28;20252;-67
2022/12/14 01:12:06;;;;;;;13.37;10.40;;;;;;;-3.85;52.39;98592.94;10358798;28;20306;-67
2022/12/14 01:17:08;;;;;;;14.50;10.13;;;;;;;-4.16;53.19;98597.94;10363366;28;20242;-67
2022/12/14 01:22:09;;;;;;;12.90;10.53;;;;;;;-4.83;53.42;98661.31;10353798;28;20862;-66
2022/12/14 01:27:11;;;;;;;12.77;10.70;;;;;;;-4.03;52.34;98606.47;10360193;28;20971;-66
2022/12/14 01:32:13;;;;;;;16.37;11.23;;;;;;;-4.41;52.94;98636.38;10360489;28;20248;-68
2022/12/14 01:37:15;;;;;;;16.83;11.57;;;;;;;-4.31;53.11;98615.63;10375262;28;20283;-66
2022/12/14 01:42:16;;;;;;;17.27;11.37;;;;;;;-4.74;53.52;98629.31;10360331;28;20616;-66
2022/12/14 01:47:25;;;;;;;13.67;10.53;;;;;;;-4.27;52.37;98611.81;10360954;28;20263;-66
2022/12/14 01:52:34;;;;;;;14.43;10.00;;;;;;;-4.11;52.74;98602.78;10360228;28;20231;-67
2022/12/14 01:57:53;;;;;;;14.23;10.47;;;;;;;-3.36;51.70;98531.47;10359424;28;20657;-67
2022/12/14 02:03:05;;;;;;;14.87;10.43;;;;;;;-3.58;51.97;98547.25;10356361;28;20255;-66
2022/12/14 02:08:08;;;;;;;20.17;12.70;;;;;;;-3.17;51.01;98528.16;10355659;28;20243;-63
2022/12/14 02:13:24;;;;;;;13.70;9.93;;;;;;;-4.36;52.75;98595.06;10352880;28;20237;-64
2022/12/14 02:18:28;;;;;;;16.07;10.50;;;;;;;-3.94;52.94;98563.13;10359134;28;20887;-64
2022/12/14 02:23:45;;;;;;;13.20;10.37;;;;;;;-2.90;51.56;98521.63;10358609;28;20247;-63
2022/12/14 02:29:05;;;;;;;13.67;10.10;;;;;;;-3.83;52.28;98568.31;10358829;28;20287;-64
2022/12/14 02:34:30;;;;;;;17.13;10.07;;;;;;;-3.39;51.46;98544.78;10357371;28;20294;-63
2022/12/14 02:39:40;;;;;;;12.33;10.47;;;;;;;-3.45;51.54;98537.44;10353500;28;20244;-63
2022/12/14 02:44:56;;;;;;;15.17;10.27;;;;;;;-3.36;51.42;98547.16;10358350;28;20321;-64
2022/12/14 02:50:19;;;;;;;14.23;10.67;;;;;;;-3.91;51.80;98564.66;10357189;28;20298;-63
2022/12/14 02:55:25;;;;;;;15.30;11.67;;;;;;;-4.29;52.73;98590.22;10352855;28;20231;-64
2022/12/14 03:00:31;;;;;;;13.60;9.93;;;;;;;-3.78;52.19;98562.72;10354241;28;20233;-64
2022/12/14 03:05:33;;;;;;;15.23;11.30;;;;;;;-3.83;52.22;98555.25;10343706;28;20807;-64
2022/12/14 03:10:39;;;;;;;16.27;11.03;;;;;;;-3.73;52.43;98542.28;10357211;28;20236;-64
2022/12/14 03:15:46;;;;;;;17.67;10.97;;;;;;;-3.35;51.72;98522.66;10354963;28;20228;-64
2022/12/14 03:20:51;;;;;;;14.90;10.37;;;;;;;-3.92;52.69;98550.75;10357276;28;20247;-64
2022/12/14 03:25:57;;;;;;;17.20;10.80;;;;;;;-3.02;51.15;98478.16;10356528;28;20247;-64
2022/12/14 03:31:07;;;;;;;14.07;10.27;;;;;;;-3.80;51.81;98535.88;10357177;28;20869;-64
2022/12/14 03:36:58;;;;;;;14.00;10.60;;;;;;;-3.23;51.37;98492.03;10366674;28;20308;-64
2022/12/14 03:42:22;;;;;;;13.80;10.57;;;;;;;-2.63;50.08;98460.84;10347337;28;20291;-64
2022/12/14 03:47:39;;;;;;;13.60;9.70;;;;;;;-3.14;50.30;98501.72;10355776;28;20282;-64
2022/12/14 03:53:08;;;;;;;14.67;10.73;;;;;;;-3.31;52.02;98484.81;10364708;28;20237;-63
2022/12/14 03:58:36;;;;;;;17.40;10.77;;;;;;;-2.85;51.33;98459.22;10357015;28;20243;-64
2022/12/14 04:03:52;;;;;;;17.07;10.30;;;;;;;-4.08;52.27;98545.06;10363504;28;20241;-64
2022/12/14 04:09:12;;;;;;;15.27;10.53;;;;;;;-3.36;52.44;98488.78;10364978;28;20238;-63
2022/12/14 04:20:09;;;;;;;17.43;12.17;;;;;;;-4.06;53.21;98533.56;10362843;28;20239;-63
2022/12/14 04:30:42;;;;;;;16.53;10.23;;;;;;;-3.51;52.16;98489.06;10361994;28;20239;-64
2022/12/14 04:35:44;;;;;;;14.97;10.70;;;;;;;-3.22;51.79;98444.81;10358232;28;20288;-64
2022/12/14 04:41:01;;;;;;;19.20;12.73;;;;;;;-3.17;51.65;98451.44;10332261;28;20239;-65
2022/12/14 04:46:26;;;;;;;15.63;11.63;;;;;;;-3.00;51.60;98443.03;10321397;28;20235;-64
2022/12/14 04:51:41;;;;;;;17.97;11.63;;;;;;;-3.15;52.20;98458.22;10342514;28;20324;-63
2022/12/14 04:56:51;;;;;;;20.20;11.90;;;;;;;-3.42;52.40;98477.00;10362607;28;20619;-64
2022/12/14 05:02:17;;;;;;;15.67;11.07;;;;;;;-2.53;51.20;98414.53;10361628;28;20248;-64
2022/12/14 05:07:32;;;;;;;18.23;11.77;;;;;;;-3.02;52.15;98450.19;10357984;28;20230;-64
2022/12/14 05:12:50;;;;;;;15.77;11.43;;;;;;;-3.39;51.87;98474.16;10354445;28;20232;-64
2022/12/14 05:17:53;;;;;;;16.20;12.67;;;;;;;-3.71;53.44;98480.22;10356694;28;20236;-64
2022/12/14 05:22:54;;;;;;;16.17;12.60;;;;;;;-3.10;51.99;98442.97;10360191;28;20609;-64
2022/12/14 05:27:56;;;;;;;16.57;11.70;;;;;;;-3.05;52.43;98432.94;10360537;28;20233;-64
2022/12/14 05:32:58;;;;;;;14.33;10.83;;;;;;;-2.95;51.83;98425.13;10360419;28;20248;-64
2022/12/14 05:37:59;;;;;;;17.43;12.40;;;;;;;-2.91;52.68;98421.31;10359061;28;20244;-64
2022/12/14 05:43:06;;;;;;;17.63;12.53;;;;;;;-2.91;52.70;98418.69;10360561;28;20264;-64
2022/12/14 05:48:07;;;;;;;13.67;10.83;;;;;;;-2.74;51.38;98400.72;10351946;28;20229;-64
2022/12/14 05:53:09;;;;;;;17.63;12.80;;;;;;;-3.18;52.29;98421.84;10360814;28;20294;-64
2022/12/14 05:58:11;;;;;;;17.60;12.50;;;;;;;-2.04;51.32;98343.84;10359576;28;20233;-64
2022/12/14 06:03:13;;;;;;;15.87;12.30;;;;;;;-2.97;53.12;98406.13;10359887;28;20240;-64
2022/12/14 06:08:14;;;;;;;20.53;13.50;;;;;;;-1.77;51.55;98324.81;10357830;28;20229;-64
2022/12/14 06:13:16;;;;;;;16.07;13.10;;;;;;;-2.62;52.69;98386.53;10359958;28;20283;-64
2022/12/14 06:18:18;;;;;;;18.47;13.13;;;;;;;-2.72;53.13;98360.31;10358622;28;20941;-64
2022/12/14 06:23:20;;;;;;;18.50;13.27;;;;;;;-2.95;53.32;98383.25;10358113;28;20466;-64
2022/12/14 06:28:22;;;;;;;16.50;13.67;;;;;;;-2.90;53.79;98375.00;10358411;28;20228;-64
2022/12/14 06:33:24;;;;;;;19.97;14.60;;;;;;;-3.25;54.43;98395.34;10350748;28;20283;-64
2022/12/14 06:38:26;;;;;;;24.00;15.10;;;;;;;-2.99;54.49;98349.63;10357873;28;20311;-64
2022/12/14 06:43:28;;;;;;;21.53;15.20;;;;;;;-1.85;52.90;98264.38;10358200;28;20247;-64
2022/12/14 06:48:30;;;;;;;18.00;13.83;;;;;;;-2.28;53.22;98283.19;10357325;28;20279;-64
2022/12/14 06:53:34;;;;;;;19.60;13.70;;;;;;;-3.29;54.49;98349.47;10358691;28;20225;-64
2022/12/14 06:58:36;;;;;;;18.47;12.57;;;;;;;-3.96;56.49;98379.44;10357662;28;20618;-64
2022/12/14 07:03:38;;;;;;;22.67;13.40;;;;;;;-3.62;55.89;98382.75;10358288;28;20243;-64
2022/12/14 07:08:40;;;;;;;16.33;12.80;;;;;;;-3.13;55.36;98338.53;10356281;28;20667;-64
2022/12/14 07:13:42;;;;;;;17.53;13.67;;;;;;;-4.15;57.95;98377.50;10361023;28;20283;-64
2022/12/14 07:18:43;;;;;;;18.47;13.63;;;;;;;-3.34;57.08;98319.44;10358212;28;20255;-64
2022/12/14 07:23:47;;;;;;;22.00;15.10;;;;;;;-4.08;57.60;98355.13;10365148;28;20883;-64
2022/12/14 07:28:50;;;;;;;17.80;13.57;;;;;;;-2.94;55.92;98266.31;10359881;28;20299;-64
2022/12/14 07:33:54;;;;;;;19.53;13.40;;;;;;;-2.94;55.90;98269.75;10357377;28;20287;-64
2022/12/14 07:38:56;;;;;;;19.30;14.03;;;;;;;-3.42;56.87;98307.00;10364716;28;20243;-64
2022/12/14 07:43:59;;;;;;;21.87;14.43;;;;;;;-3.50;57.17;98312.88;10363970;28;20518;-63
2022/12/14 07:49:02;;;;;;;20.30;14.77;;;;;;;-3.34;56.77;98283.63;10364549;28;20318;-64
2022/12/14 07:54:05;;;;;;;23.77;15.43;;;;;;;-3.33;56.85;98287.91;10364908;28;20239;-64
2022/12/14 07:59:10;;;;;;;20.63;14.73;;;;;;;-3.27;55.90;98282.16;10364636;28;20736;-63
2022/12/14 08:04:16;;;;;;;21.77;14.83;;;;;;;-4.17;57.83;98345.47;10363898;28;20236;-63
2022/12/14 08:09:18;;;;;;;21.37;14.57;;;;;;;-3.52;57.46;98293.88;10363363;28;20233;-65
2022/12/14 08:14:21;;;;;;;19.57;14.53;;;;;;;-2.76;55.92;98224.56;10366971;28;20243;-63
2022/12/14 08:19:22;;;;;;;22.80;14.77;;;;;;;-2.17;54.80;98183.44;10363825;28;20722;-63
2022/12/14 08:24:24;;;;;;;21.47;13.93;;;;;;;-2.41;56.11;98182.09;10363556;28;20244;-64
2022/12/14 08:29:26;;;;;;;21.57;15.97;;;;;;;-3.18;56.80;98241.28;10363661;28;20235;-64
2022/12/14 08:34:27;;;;;;;19.30;14.23;;;;;;;-3.02;58.13;98219.03;10354858;28;20233;-65
2022/12/14 08:39:29;;;;;;;20.80;15.53;;;;;;;-2.21;57.00;98155.84;10378090;28;20241;-64
2022/12/14 08:44:31;;;;;;;20.03;14.97;;;;;;;-2.45;56.35;98174.66;10363181;28;20240;-64
2022/12/14 08:49:32;;;;;;;21.83;14.63;;;;;;;-2.32;57.58;98154.25;10362806;28;20241;-63
2022/12/14 08:54:34;;;;;;;20.23;14.57;;;;;;;-2.96;58.40;98213.25;10363200;28;20248;-63
2022/12/14 08:59:35;;;;;;;21.67;14.97;;;;;;;-3.50;59.47;98254.53;10361908;28;20287;-64
2022/12/14 09:04:57;;;;;;;22.97;15.43;;;;;;;-3.09;58.82;98224.75;10362858;28;20368;-65
2022/12/14 09:09:59;;;;;;;23.03;16.13;;;;;;;-3.81;61.17;98270.19;10361796;28;20617;-65
2022/12/14 09:15:01;;;;;;;27.70;18.77;;;;;;;-3.54;61.52;98267.00;10364758;28;20236;-65
2022/12/14 09:20:04;;;;;;;22.97;16.33;;;;;;;-3.81;60.83;98271.03;10365211;28;20376;-65
2022/12/14 09:25:07;;;;;;;24.83;18.10;;;;;;;-3.95;62.32;98273.13;10362736;28;20245;-64
2022/12/14 09:30:08;;;;;;;24.40;18.07;;;;;;;-3.81;62.34;98250.13;10354023;28;20236;-64
2022/12/14 09:35:10;;;;;;;27.23;17.60;;;;;;;-3.49;60.90;98227.41;10345346;28;20233;-63
2022/12/14 09:40:12;;;;;;;26.53;17.90;;;;;;;-3.49;60.99;98225.59;10360407;28;20611;-63
2022/12/14 09:45:36;;;;;;;22.93;17.70;;;;;;;-2.49;59.78;98133.03;10359943;28;20637;-64
2022/12/14 09:50:39;;;;;;;26.53;18.80;;;;;;;-2.55;59.78;98127.53;10359952;28;20887;-64
2022/12/14 09:55:45;;;;;;;28.37;20.00;;;;;;;-3.80;62.01;98225.63;10360101;28;20236;-64
2022/12/14 10:01:09;;;;;;;28.43;20.30;;;;;;;-3.59;61.87;98201.19;10359740;28;20245;-63
2022/12/14 10:06:38;;;;;;;27.37;18.60;;;;;;;-3.92;62.27;98220.63;10359115;28;20247;-63
2022/12/14 10:11:55;;;;;;;28.93;20.43;;;;;;;-3.24;62.13;98169.34;10357089;28;20264;-64
2022/12/14 10:17:32;;;;;;;32.93;22.27;;;;;;;-2.90;60.70;98147.25;10362333;28;20235;-64
2022/12/14 10:22:41;;;;;;;30.10;20.23;;;;;;;-2.65;60.10;98138.00;10354662;28;20237;-64
2022/12/14 10:27:49;;;;;;;29.87;20.77;;;;;;;-3.11;59.62;98179.59;10359613;28;20225;-64
2022/12/14 10:33:25;;;;;;;32.20;21.67;;;;;;;-3.06;60.91;98166.91;10350243;28;20253;-64
2022/12/14 10:38:52;;;;;;;33.83;21.50;;;;;;;-2.15;59.01;98108.13;10358194;28;20243;-63
2022/12/14 10:44:21;;;;;;;29.27;20.63;;;;;;;-2.17;59.18;98103.03;10355359;28;20306;-64
2022/12/14 10:49:40;;;;;;;32.50;24.40;;;;;;;-2.66;59.57;98136.34;10358342;28;20256;-63
2022/12/14 10:54:47;;;;;;;31.17;21.93;;;;;;;-3.00;60.91;98168.19;10358061;28;20268;-63
2022/12/14 10:59:49;;;;;;;30.83;23.03;;;;;;;-3.12;61.23;98177.91;10360421;28;20228;-64
2022/12/14 11:06:18;;;;;;;37.10;23.57;;;;;;;-4.58;65.52;98246.00;10552859;27;20808;-63
2022/12/14 11:11:22;;;;;;;36.07;23.93;;;;;;;-4.16;65.60;98196.41;10494288;28;20238;-63
2022/12/14 11:16:35;;;;;;;32.20;23.97;;;;;;;-4.04;65.50;98172.81;10492475;28;20236;-64
2022/12/14 11:21:38;;;;;;;34.13;23.10;;;;;;;-3.72;63.59;98153.53;10510334;28;20334;-66
2022/12/14 11:26:41;;;;;;;32.80;23.77;;;;;;;-4.02;65.58;98174.34;10514435;28;20343;-63
2022/12/14 11:31:48;;;;;;;35.60;24.67;;;;;;;-3.64;64.39;98144.09;10509125;28;20234;-63
2022/12/14 11:36:51;;;;;;;35.53;25.07;;;;;;;-3.07;63.02;98117.31;10486730;28;20254;-65
2022/12/14 11:42:01;;;;;;;36.00;24.10;;;;;;;-3.61;64.05;98151.66;10495394;28;20247;-64
2022/12/14 11:47:24;;;;;;;36.93;24.43;;;;;;;-4.20;65.69;98189.78;10498111;28;20680;-64
2022/12/14 11:52:40;;;;;;;37.60;24.27;;;;;;;-4.25;65.26;98175.44;10501736;28;20231;-65
2022/12/14 11:57:56;;;;;;;31.50;23.73;;;;;;;-3.53;64.24;98114.38;10487996;28;20240;-65
2022/12/14 12:02:58;;;;;;;30.13;22.90;;;;;;;-3.62;63.90;98125.66;10497886;28;20230;-64
2022/12/14 12:08:06;;;;;;;35.10;23.90;;;;;;;-4.76;65.76;98205.75;10502165;28;20230;-63
2022/12/14 12:13:31;;;;;;;33.27;23.23;;;;;;;-3.70;64.43;98130.72;10494775;28;20235;-66
2022/12/14 12:18:45;;;;;;;38.67;25.17;;;;;;;-3.69;63.85;98129.75;10462891;28;20235;-65
2022/12/14 12:23:50;;;;;;;31.83;23.67;;;;;;;-3.11;62.83;98102.88;10469484;28;20239;-63
2022/12/14 12:29:02;;;;;;;34.33;23.80;;;;;;;-2.73;61.60;98083.72;10479094;28;20286;-63
2022/12/14 12:34:15;;;;;;;31.53;22.00;;;;;;;-4.04;63.38;98180.66;10459468;28;20346;-62
2022/12/14 12:39:23;;;;;;;33.77;22.97;;;;;;;-2.64;62.22;98087.28;10469543;28;20288;-63
2022/12/14 12:44:49;;;;;;;35.63;24.60;;;;;;;-3.54;63.13;98151.13;10467255;28;20239;-63
2022/12/14 12:49:51;;;;;;;30.80;23.13;;;;;;;-2.76;61.94;98115.44;10467062;28;20267;-64
2022/12/14 12:54:56;;;;;;;31.20;22.57;;;;;;;-2.94;61.61;98132.81;10477494;28;20794;-64
2022/12/14 12:59:59;;;;;;;36.23;24.97;;;;;;;-3.23;63.02;98151.91;10474638;28;20339;-64
2022/12/14 13:05:08;;;;;;;34.50;24.63;;;;;;;-2.99;62.62;98138.44;10478260;28;20242;-64
2022/12/14 13:10:34;;;;;;;47.73;32.03;;;;;;;-2.98;62.67;98126.16;10465997;28;20332;-64
2022/12/14 13:15:44;;;;;;;32.10;22.13;;;;;;;-2.82;62.32;98123.81;10476849;28;20247;-65
2022/12/14 13:20:46;;;;;;;32.67;22.27;;;;;;;-3.56;63.59;98187.06;10473374;28;20231;-64
2022/12/14 13:25:52;;;;;;;30.87;22.20;;;;;;;-2.92;63.21;98147.38;10472506;28;20696;-64
2022/12/14 13:31:12;;;;;;;33.67;22.87;;;;;;;-3.06;62.08;98187.84;10457088;28;20235;-63
2022/12/14 13:36:44;;;;;;;31.80;22.13;;;;;;;-2.58;61.45;98164.47;10464525;28;20231;-64
2022/12/14 13:42:31;;;;;;;34.93;23.93;;;;;;;-3.54;63.37;98224.34;10469114;28;20667;-64
2022/12/14 13:47:40;;;;;;;32.03;23.43;;;;;;;-3.29;63.32;98207.38;10462340;28;20304;-64
2022/12/14 13:52:45;;;;;;;34.70;24.37;;;;;;;-2.48;61.58;98157.44;10474041;28;20258;-63
2022/12/14 13:57:50;;;;;;;28.83;20.83;;;;;;;-3.01;62.78;98208.44;10475062;28;20241;-64
2022/12/14 14:02:54;;;;;;;34.73;21.93;;;;;;;-2.57;61.91;98180.03;10473873;28;20277;-64
2022/12/14 14:08:00;;;;;;;28.67;21.27;;;;;;;-3.62;63.36;98264.25;10480060;28;20272;-64
2022/12/14 14:13:28;;;;;;;30.60;21.07;;;;;;;-2.81;62.82;98205.81;10452020;28;20644;-64
2022/12/14 14:18:33;;;;;;;27.73;21.43;;;;;;;-3.05;62.91;98226.16;10450984;28;20246;-64
2022/12/14 14:23:36;;;;;;;30.27;21.47;;;;;;;-3.06;63.00;98242.81;10474438;28;20731;-63
2022/12/14 14:28:38;;;;;;;30.40;21.73;;;;;;;-2.83;62.12;98226.88;10471239;28;20227;-64
2022/12/14 14:33:48;;;;;;;31.80;21.97;;;;;;;-2.62;62.02;98225.97;10466816;28;20231;-64
2022/12/14 14:38:51;;;;;;;35.03;21.83;;;;;;;-2.21;61.26;98210.91;10472195;28;20241;-63
2022/12/14 14:43:57;;;;;;;31.90;20.93;;;;;;;-2.30;61.06;98223.03;10466731;28;20243;-64
2022/12/14 14:48:59;;;;;;;30.00;20.73;;;;;;;-3.06;62.42;98276.84;10466376;28;20238;-64
2022/12/14 14:54:16;;;;;;;30.33;21.50;;;;;;;-2.43;61.83;98253.94;10466055;28;20227;-64
2022/12/14 14:59:43;;;;;;;33.17;21.73;;;;;;;-1.99;60.32;98238.59;10459776;28;20243;-68
2022/12/14 15:04:54;;;;;;;31.43;21.43;;;;;;;-1.99;60.27;98247.25;10470862;28;20231;-67
2022/12/14 15:10:06;;;;;;;35.73;23.63;;;;;;;-1.70;58.88;98253.41;10467937;28;20302;-65
2022/12/14 15:15:27;;;;;;;31.87;21.30;;;;;;;-0.55;56.77;98260.88;10459031;28;20233;-65
2022/12/14 15:20:29;;;;;;;26.60;19.50;;;;;;;-0.71;56.81;98313.22;10453005;28;20263;-64
2022/12/14 15:25:31;;;;;;;27.97;20.43;;;;;;;-1.08;58.11;98340.34;10459370;28;20308;-66
2022/12/14 15:30:36;;;;;;;31.33;22.13;;;;;;;-1.35;58.34;98368.22;10426019;28;20282;-65
2022/12/14 15:35:41;;;;;;;31.43;20.90;;;;;;;-0.62;56.46;98367.50;10399372;28;20229;-65
2022/12/14 15:41:02;;;;;;;23.87;19.10;;;;;;;-1.07;57.07;98378.78;10396639;28;20236;-65
2022/12/14 15:46:15;;;;;;;27.73;19.83;;;;;;;-1.19;57.38;98394.69;10394056;28;20242;-65
2022/12/14 15:51:17;;;;;;;28.57;20.17;;;;;;;-1.04;57.38;98395.06;10401386;28;20239;-64
2022/12/14 15:56:35;;;;;;;26.73;20.37;;;;;;;-0.24;55.83;98394.56;10405638;28;20241;-64
2022/12/14 16:01:39;;;;;;;24.53;18.40;;;;;;;-1.31;56.93;98437.84;10433261;28;20237;-63
2022/12/14 16:06:45;;;;;;;26.90;19.43;;;;;;;-1.12;57.15;98446.66;10420216;28;20235;-66
2022/12/14 16:11:59;;;;;;;25.47;18.63;;;;;;;-1.37;57.28;98454.13;10444835;28;20259;-65
2022/12/14 16:17:02;;;;;;;28.73;20.50;;;;;;;-0.78;56.33;98448.75;10418138;28;20272;-65
2022/12/14 16:22:09;;;;;;;25.27;19.53;;;;;;;-0.53;55.99;98428.91;10406518;28;20689;-65
2022/12/14 16:27:17;;;;;;;26.47;19.53;;;;;;;-0.42;55.51;98439.22;10380424;28;20299;-64
2022/12/14 16:32:20;;;;;;;25.27;19.07;;;;;;;-0.53;55.28;98456.00;10432144;28;20251;-64
2022/12/14 16:37:22;;;;;;;32.80;24.17;;;;;;;-0.82;56.76;98475.31;10445419;28;20232;-64
2022/12/14 16:42:37;;;;;;;24.80;19.33;;;;;;;-1.66;57.66;98525.81;10436860;28;20239;-63
2022/12/14 16:47:57;;;;;;;27.73;18.70;;;;;;;-1.56;57.99;98539.75;10425459;28;20294;-63
2022/12/14 16:53:22;;;;;;;25.57;19.53;;;;;;;-0.93;57.21;98485.97;10425137;28;20717;-66
2022/12/14 16:58:24;;;;;;;30.10;19.47;;;;;;;-1.42;57.97;98503.59;10460154;28;20255;-65
2022/12/14 17:03:28;;;;;;;29.20;21.50;;;;;;;-1.23;58.45;98500.94;10462823;28;20247;-66
2022/12/14 17:08:34;;;;;;;31.47;22.10;;;;;;;-0.82;56.90;98479.75;10460881;28;20728;-67
2022/12/14 17:13:36;;;;;;;30.00;20.10;;;;;;;-0.98;56.78;98503.94;10443147;28;20302;-66
2022/12/14 17:18:39;;;;;;;27.13;19.43;;;;;;;-1.27;57.22;98527.63;10443731;28;20792;-63
2022/12/14 17:23:42;;;;;;;27.90;21.23;;;;;;;-1.92;58.26;98575.28;10430075;28;20749;-63
2022/12/14 17:28:44;;;;;;;27.50;21.80;;;;;;;-1.25;58.30;98541.44;10402906;28;20290;-62
2022/12/14 17:33:50;;;;;;;31.80;21.73;;;;;;;-1.92;59.94;98578.75;10401498;28;20234;-62
2022/12/14 17:38:52;;;;;;;32.80;23.67;;;;;;;-2.32;60.24;98597.91;10401251;28;20240;-63
2022/12/14 17:43:56;;;;;;;35.67;24.10;;;;;;;-1.65;58.77;98563.34;10401925;28;20239;-62
2022/12/14 17:48:58;;;;;;;27.73;20.27;;;;;;;-0.88;56.53;98510.00;10401050;28;20240;-63
2022/12/14 17:54:18;;;;;;;25.57;19.53;;;;;;;-1.49;57.45;98571.53;10400836;28;20275;-62
2022/12/14 17:59:19;;;;;;;28.37;19.67;;;;;;;-2.06;58.97;98594.03;10401851;28;20233;-62
2022/12/14 18:04:21;;;;;;;29.17;20.93;;;;;;;-2.16;59.67;98600.03;10423649;28;20233;-63
2022/12/14 18:09:23;;;;;;;28.23;20.70;;;;;;;-1.49;57.90;98554.97;10399591;28;20240;-62
2022/12/14 18:14:24;;;;;;;29.67;22.20;;;;;;;-2.72;60.63;98614.34;10419952;28;20235;-63
2022/12/14 18:19:26;;;;;;;30.40;22.13;;;;;;;-2.39;60.82;98609.88;10421845;28;20245;-62
2022/12/14 18:24:28;;;;;;;38.03;24.40;;;;;;;-2.54;60.30;98604.13;10400009;28;20231;-63
2022/12/14 18:29:29;;;;;;;30.33;22.73;;;;;;;-2.74;60.55;98623.31;10400204;28;20244;-62
2022/12/14 18:34:31;;;;;;;32.47;21.73;;;;;;;-2.52;60.52;98611.88;10399559;28;20240;-62
2022/12/14 18:39:42;;;;;;;30.47;21.87;;;;;;;-2.50;59.72;98612.56;10399774;28;20241;-62
2022/12/14 18:44:49;;;;;;;33.13;22.17;;;;;;;-3.69;60.97;98666.59;10421667;28;20282;-62
2022/12/14 18:49:51;;;;;;;37.27;24.87;;;;;;;-1.44;57.24;98565.88;10418039;28;20239;-62
2022/12/14 18:54:54;;;;;;;32.97;22.40;;;;;;;-1.96;57.94;98615.88;10399509;28;20337;-63
2022/12/14 18:59:56;;;;;;;31.57;21.63;;;;;;;-1.53;57.17;98585.91;10403649;28;20232;-63
2022/12/14 19:04:57;;;;;;;34.80;23.83;;;;;;;-1.09;56.83;98567.13;10441038;28;20235;-65
2022/12/14 19:10:00;;;;;;;32.37;23.43;;;;;;;-0.88;56.43;98561.72;10456662;28;20305;-64
2022/12/14 19:15:02;;;;;;;30.87;22.47;;;;;;;-2.09;58.15;98634.44;10427871;28;20283;-65
2022/12/14 19:20:04;;;;;;;38.10;25.57;;;;;;;-2.25;59.19;98657.69;10407833;28;20332;-62
2022/12/14 19:25:10;;;;;;;26.50;20.23;;;;;;;-2.08;57.85;98648.38;10401658;28;20237;-65
2022/12/14 19:30:18;;;;;;;25.73;19.03;;;;;;;-2.11;58.96;98649.47;10395864;28;20982;-65
2022/12/14 19:35:21;;;;;;;26.97;20.63;;;;;;;-2.19;58.92;98650.13;10405872;28;20228;-65
2022/12/14 19:40:23;;;;;;;33.73;23.23;;;;;;;-2.84;59.47;98687.88;10403081;28;20232;-65
2022/12/14 19:45:25;;;;;;;29.90;21.80;;;;;;;-1.18;56.26;98589.78;10405396;28;20237;-62
2022/12/14 19:50:26;;;;;;;28.87;21.63;;;;;;;-1.32;56.24;98598.06;10407497;28;20236;-64
2022/12/14 19:55:28;;;;;;;32.43;20.10;;;;;;;-1.00;55.51;98593.38;10415048;28;20225;-65
2022/12/14 20:00:30;;;;;;;27.23;19.90;;;;;;;-1.90;56.95;98638.94;10421252;28;20653;-65
2022/12/14 20:05:34;;;;;;;26.20;19.00;;;;;;;-1.95;58.41;98657.69;10398760;28;20334;-63
2022/12/14 20:10:36;;;;;;;27.30;19.47;;;;;;;-1.42;56.72;98626.94;10438481;28;20239;-64
2022/12/14 20:15:38;;;;;;;26.50;19.07;;;;;;;-0.98;55.89;98612.44;10464859;28;20739;-65
2022/12/14 20:20:39;;;;;;;28.23;20.33;;;;;;;-2.54;58.29;98710.69;10466452;28;20285;-64
2022/12/14 20:25:41;;;;;;;30.13;22.03;;;;;;;-2.05;58.49;98685.66;10466906;28;20230;-64
2022/12/14 20:30:44;;;;;;;29.43;21.57;;;;;;;-1.67;58.14;98667.59;10462298;28;20239;-64
2022/12/14 20:35:50;;;;;;;30.90;20.43;;;;;;;-3.09;59.58;98736.91;10463575;28;20684;-64
2022/12/14 20:40:52;;;;;;;28.07;20.00;;;;;;;-1.60;56.99;98651.19;10465500;28;20227;-65
2022/12/14 20:45:54;;;;;;;27.67;20.23;;;;;;;-1.37;56.87;98649.16;10460291;28;20224;-64
2022/12/14 20:51:01;;;;;;;27.70;19.97;;;;;;;-2.62;58.25;98724.44;10463162;28;20230;-65
2022/12/14 20:56:04;;;;;;;30.10;18.90;;;;;;;-1.56;57.04;98662.25;10453607;28;20231;-64
2022/12/14 21:01:17;;;;;;;28.43;19.30;;;;;;;-2.13;58.19;98688.91;10443415;28;20231;-65
2022/12/14 21:06:21;;;;;;;27.03;19.87;;;;;;;-1.45;57.26;98661.31;10450441;28;20727;-66
2022/12/14 21:16:43;;;;;;;28.73;18.67;;;;;;;-1.11;55.70;98629.44;10452783;28;20231;-66
2022/12/14 21:21:45;;;;;;;26.97;19.23;;;;;;;-1.18;55.99;98643.16;10457559;28;20230;-64
2022/12/14 21:26:54;;;;;;;28.90;19.47;;;;;;;-1.97;56.48;98700.72;10461083;28;20231;-64
2022/12/14 21:31:59;;;;;;;25.87;19.20;;;;;;;-1.78;56.01;98690.34;10445621;28;20400;-63
2022/12/14 21:37:01;;;;;;;27.10;18.60;;;;;;;-1.70;56.90;98688.84;10440863;28;20760;-63
2022/12/14 21:42:11;;;;;;;24.83;17.57;;;;;;;-1.90;57.13;98698.41;10440888;28;20705;-63
2022/12/14 21:47:21;;;;;;;29.37;19.27;;;;;;;-2.13;57.58;98719.53;10431328;28;20243;-63
2022/12/14 21:52:25;;;;;;;27.67;19.50;;;;;;;-2.15;57.76;98726.72;10439009;28;20244;-63
2022/12/14 22:02:51;;;;;;;27.33;19.60;;;;;;;-2.12;57.22;98715.94;10396687;28;20232;-63
2022/12/14 22:07:52;;;;;;;27.40;18.70;;;;;;;-2.52;57.97;98740.22;10398442;28;20286;-63
2022/12/14 22:12:54;;;;;;;27.23;19.33;;;;;;;-3.66;59.93;98770.13;10399193;28;20808;-63
2022/12/14 22:17:56;;;;;;;28.87;18.67;;;;;;;-3.67;59.21;98794.59;10397083;28;20239;-63
2022/12/14 22:22:58;;;;;;;24.73;18.73;;;;;;;-1.71;56.79;98698.50;10398583;28;20255;-61
2022/12/14 22:28:00;;;;;;;28.93;19.03;;;;;;;-2.51;57.78;98740.13;10398227;28;20232;-63
2022/12/14 22:33:01;;;;;;;29.73;20.10;;;;;;;-2.55;58.30;98745.72;10404503;28;20241;-62
2022/12/14 22:38:03;;;;;;;31.50;20.93;;;;;;;-2.68;58.22;98748.50;10431222;28;20235;-63
2022/12/14 22:43:05;;;;;;;28.50;19.57;;;;;;;-2.84;58.24;98748.09;10398036;28;20239;-62
2022/12/14 22:48:06;;;;;;;29.33;19.77;;;;;;;-3.67;59.56;98782.38;10396730;28;20236;-62
2022/12/14 22:53:08;;;;;;;23.63;16.63;;;;;;;-3.75;59.47;98784.72;10397866;28;20298;-62
2022/12/14 22:58:10;;;;;;;24.70;17.70;;;;;;;-3.68;59.14;98787.72;10397402;28;20282;-62
2022/12/14 23:03:12;;;;;;;26.20;17.47;;;;;;;-2.61;58.37;98714.78;10401427;28;20238;-64
2022/12/14 23:08:14;;;;;;;29.03;19.50;;;;;;;-2.34;57.73;98714.28;10429162;28;20351;-64
